Louis, Missouri
Current Conditions -  °F | °C
As of 9:53 AM on Sunday 23 Nov 2014 (Local Time) from KCPS Reporting Station
Light Rain Light Rain  
Wind Chill: 13°   Ceiling: 1600
Heat Index: 13°   Visibility: 10mi
Dew Point: 11°   Wind: 13mph
Humidity: 87%   Direction: 140°SE
Pressure: 29.65"   Gusts: NA
Location:  38.6578°N, 90.2474°W
Report Text: KCPS 231553Z 14011KT 10SM -RA BKN016 OVC090 13/11 A2965 RMK AO2 RAB1458 SLP038 P0002 T01330111
Loading
Personal Weather Stations






























Interactive Weather Map New forecast layout! Learn more

10-Day Weather Forecast

Advertisements
Track Severe Weather on mobile